EDLW/DTM METAR and TAF weather

Enter ICAO airport designator
Station Type Date Time Source
EDLW METAR 2022/01/26 08:50 UTC NOAA

EDLW 260850Z 23006KT 210V280 3000 BR OVC017 02/M01 Q1031


Station Type Date Time Source
EDLW Decoded METAR 2022/01/26 08:50 UTC NOAA

Dortmund / Wickede, Germany (EDLW) 51-31N 007-37E
Jan 26, 2022 - 03:50 AM EST / 2022.01.26 0850 UTC
Wind: from the SW (230 degrees) at 7 MPH (6 KT) (direction variable):0
Visibility: 1 mile(s):0
Sky conditions: overcast
Weather: mist
Temperature: 35 F (2 C)
Windchill: 28 F (-2 C):1
Dew Point: 30 F (-1 C)
Relative Humidity: 80%
Pressure (altimeter): 30.45 in. Hg (1031 hPa)
ob: EDLW 260850Z 23006KT 210V280 3000 BR OVC017 02/M01 Q1031
cycle: 9

Station Type Date Time Source
EDLW TAF 2022/01/26 08:57 UTC NOAA

TAF
AMD TAF
AMD EDLW 260855Z 2608/2706 23006KT 3000 BR OVC015
TEMPO 2608/2703 OVC012
BECMG 2610/2613 6000
BECMG 2619/2622 22011KT
BECMG 2703/2706 23015G25KT BKN012 PROB30
TEMPO 2703/2706 BKN008

Example: see airport list